createdAt,value
2022-10-19T00:02:53.099Z,5.53
2022-10-19T00:06:54.772Z,3.50
2022-10-19T00:10:56.418Z,3.92
2022-10-19T00:14:58.449Z,4.95
2022-10-19T00:19:02.482Z,2.88
2022-10-19T00:23:04.500Z,3.60
2022-10-19T00:27:06.394Z,4.72
2022-10-19T00:31:14.297Z,3.83
2022-10-19T00:35:16.070Z,4.05
2022-10-19T00:39:18.212Z,5.30
2022-10-19T00:43:23.279Z,4.00
2022-10-19T00:47:25.258Z,3.78
2022-10-19T00:51:28.643Z,3.38
2022-10-19T00:55:30.690Z,3.58
2022-10-19T00:59:33.206Z,3.85
2022-10-19T01:03:35.164Z,3.72
2022-10-19T01:07:37.247Z,3.85
2022-10-19T01:12:08.974Z,4.32
2022-10-19T01:16:17.479Z,3.75
2022-10-19T01:20:33.765Z,4.25
2022-10-19T01:25:00.255Z,4.30
2022-10-19T01:29:18.112Z,3.85
2022-10-19T01:33:39.059Z,5.07
2022-10-19T01:37:48.687Z,2.40
2022-10-19T01:42:08.614Z,3.60
2022-10-19T01:46:27.289Z,3.42
2022-10-19T01:50:35.796Z,3.10
2022-10-19T01:54:42.611Z,3.85
2022-10-19T01:58:46.586Z,2.97
2022-10-19T02:02:50.946Z,4.30
2022-10-19T02:06:55.212Z,4.55
2022-10-19T02:10:59.241Z,4.15
2022-10-19T02:15:10.052Z,4.00
2022-10-19T02:19:14.635Z,4.07
2022-10-19T02:23:18.935Z,3.63
2022-10-19T02:27:21.203Z,5.63
2022-10-19T02:31:23.641Z,3.90
2022-10-19T02:35:25.541Z,4.53
2022-10-19T02:39:27.542Z,4.50
2022-10-19T02:43:34.160Z,3.58
2022-10-19T02:47:42.045Z,5.82
2022-10-19T02:52:15.424Z,3.22
2022-10-19T02:56:17.092Z,4.57
2022-10-19T03:00:19.099Z,3.20
2022-10-19T03:04:21.248Z,3.15
2022-10-19T03:08:22.899Z,2.92
2022-10-19T03:12:24.724Z,4.32
2022-10-19T03:16:26.811Z,7.63
2022-10-19T03:20:28.831Z,4.65
2022-10-19T03:24:31.444Z,6.32
2022-10-19T03:28:33.559Z,4.05
2022-10-19T03:32:35.273Z,4.40
2022-10-19T03:36:39.413Z,6.55
2022-10-19T03:40:41.180Z,4.85
2022-10-19T03:44:42.952Z,3.38
2022-10-19T03:48:44.674Z,9.93
2022-10-19T03:52:46.443Z,4.30
2022-10-19T03:56:48.439Z,7.43
2022-10-19T04:00:50.436Z,10.55
2022-10-19T04:04:52.218Z,6.57
2022-10-19T04:08:54.070Z,6.95
2022-10-19T04:12:55.731Z,6.32
2022-10-19T04:16:57.391Z,6.72
2022-10-19T04:21:02.969Z,7.55
2022-10-19T04:25:05.450Z,6.38
2022-10-19T04:29:07.691Z,7.20
2022-10-19T04:33:09.403Z,5.35
2022-10-19T04:37:11.036Z,4.13
2022-10-19T04:41:15.161Z,3.25
2022-10-19T04:45:17.046Z,5.03
2022-10-19T04:49:20.333Z,3.78
2022-10-19T04:53:22.138Z,6.65
2022-10-19T04:57:23.771Z,4.75
2022-10-19T05:01:27.130Z,5.90
2022-10-19T05:05:28.827Z,9.85
2022-10-19T05:09:30.446Z,5.38
2022-10-19T05:13:33.091Z,5.90
2022-10-19T05:17:35.099Z,4.95
2022-10-19T05:21:36.971Z,4.65
2022-10-19T05:25:38.622Z,4.30
2022-10-19T05:29:40.239Z,3.40
2022-10-19T05:33:42.803Z,3.10
2022-10-19T05:37:44.443Z,4.20
2022-10-19T05:41:47.384Z,3.67
2022-10-19T05:45:49.075Z,3.88
2022-10-19T05:49:50.746Z,4.07
2022-10-19T05:53:56.266Z,5.68
2022-10-19T05:57:57.904Z,4.20
2022-10-19T06:01:59.632Z,2.83
2022-10-19T06:06:06.027Z,3.00
2022-10-19T06:10:09.946Z,3.33
2022-10-19T06:14:14.205Z,2.75
2022-10-19T06:18:15.870Z,4.82
2022-10-19T06:22:18.024Z,6.32
2022-10-19T06:26:20.710Z,5.38
2022-10-19T06:30:22.459Z,4.03
2022-10-19T06:34:24.414Z,4.50
2022-10-19T06:38:26.102Z,5.32
2022-10-19T06:42:27.756Z,3.95
2022-10-19T06:46:29.566Z,2.67
2022-10-19T06:50:32.248Z,3.17
2022-10-19T06:54:33.961Z,3.58
2022-10-19T06:58:37.010Z,2.78
2022-10-19T07:02:38.758Z,4.70
2022-10-19T07:06:40.517Z,5.85
2022-10-19T07:10:42.188Z,4.32
2022-10-19T07:14:43.816Z,4.07
2022-10-19T07:18:45.867Z,3.28
2022-10-19T07:22:47.547Z,4.55
2022-10-19T07:26:49.257Z,2.58
2022-10-19T07:30:51.020Z,5.10
2022-10-19T07:34:52.680Z,4.97
2022-10-19T07:38:54.822Z,6.75
2022-10-19T07:42:56.497Z,4.05
2022-10-19T07:46:58.485Z,5.00
2022-10-19T07:51:02.044Z,10.23
2022-10-19T07:55:04.014Z,8.15
2022-10-19T07:59:05.995Z,11.60
2022-10-19T08:07:29.338Z,6.22
2022-10-19T08:11:33.399Z,5.47
2022-10-19T08:15:35.061Z,6.95
2022-10-19T08:19:41.350Z,7.00
2022-10-19T08:23:43.114Z,3.50
2022-10-19T08:27:44.787Z,7.18
2022-10-19T08:31:48.021Z,5.57
2022-10-19T08:35:49.775Z,5.13
2022-10-19T08:39:52.017Z,4.05
2022-10-19T08:44:16.820Z,4.82
2022-10-19T08:48:26.627Z,6.03
2022-10-19T08:52:34.630Z,5.30
2022-10-19T08:56:52.222Z,5.13
2022-10-19T09:09:32.950Z,6.10
2022-10-19T09:13:41.645Z,4.25
2022-10-19T09:17:48.815Z,3.58
2022-10-19T09:21:55.489Z,4.40
2022-10-19T09:25:57.783Z,4.70
2022-10-19T09:30:04.451Z,4.57
2022-10-19T09:34:16.754Z,5.15
2022-10-19T09:38:20.773Z,5.05
2022-10-19T09:42:33.632Z,4.93
2022-10-19T09:50:59.127Z,5.38
2022-10-19T09:55:33.888Z,5.80
2022-10-19T09:59:37.097Z,5.40
2022-10-19T10:03:40.393Z,6.05
2022-10-19T10:07:42.265Z,3.80
2022-10-19T10:11:48.029Z,5.00
2022-10-19T10:15:54.492Z,3.70
2022-10-19T10:19:59.309Z,5.80
2022-10-19T10:24:03.213Z,3.72
2022-10-19T10:28:25.021Z,4.60
2022-10-19T10:32:27.393Z,4.72
2022-10-19T10:36:30.548Z,4.82
2022-10-19T10:40:32.434Z,3.60
2022-10-19T10:44:36.686Z,5.13
2022-10-19T10:48:53.598Z,6.00
2022-10-19T10:53:05.464Z,5.88
2022-10-19T10:57:19.984Z,4.90
2022-10-19T11:01:30.443Z,3.78
2022-10-19T11:05:40.245Z,4.50
2022-10-19T11:09:44.572Z,4.57
2022-10-19T11:13:53.270Z,5.28
2022-10-19T11:18:07.262Z,3.40
2022-10-19T11:22:17.879Z,3.33
2022-10-19T11:26:28.451Z,3.25
2022-10-19T11:30:33.306Z,3.05
2022-10-19T11:34:49.845Z,3.40
2022-10-19T11:39:15.722Z,3.00
2022-10-19T11:43:34.580Z,4.05
2022-10-19T11:47:51.014Z,3.80
2022-10-19T11:51:59.439Z,3.80
2022-10-19T11:56:13.536Z,3.38
2022-10-19T12:00:39.224Z,2.90
2022-10-19T12:05:02.065Z,3.60
2022-10-19T12:09:25.362Z,4.25
2022-10-19T12:13:48.179Z,2.90
2022-10-19T12:17:53.963Z,3.20
2022-10-19T12:22:01.384Z,3.17
2022-10-19T12:26:07.374Z,2.90
2022-10-19T12:30:15.453Z,2.88
2022-10-19T12:34:32.647Z,2.72
2022-10-19T12:39:00.032Z,2.85
2022-10-19T12:43:20.618Z,2.80
2022-10-19T12:47:24.165Z,3.03
2022-10-19T12:51:25.862Z,1.83
2022-10-19T12:55:34.736Z,2.30
2022-10-19T12:59:37.452Z,2.30
2022-10-19T13:03:43.186Z,2.42
2022-10-19T13:12:25.632Z,2.40
2022-10-19T13:16:36.761Z,3.40
2022-10-19T13:20:38.386Z,2.30
2022-10-19T13:28:53.213Z,2.70
2022-10-19T13:32:54.966Z,2.60
2022-10-19T13:37:04.265Z,3.03
2022-10-19T13:41:05.955Z,2.70
2022-10-19T13:45:21.727Z,3.50
2022-10-19T13:50:01.125Z,3.40
2022-10-19T13:54:26.947Z,3.38
2022-10-19T13:59:00.229Z,3.40
2022-10-19T14:03:05.371Z,2.95
2022-10-19T14:07:39.594Z,2.20
2022-10-19T14:11:45.120Z,1.63
2022-10-19T14:15:52.624Z,5.13
2022-10-19T14:19:57.794Z,2.22
2022-10-19T14:24:00.356Z,2.50
2022-10-19T14:28:06.291Z,3.15
2022-10-19T14:32:10.642Z,2.20
2022-10-19T14:36:18.907Z,2.10
2022-10-19T14:40:37.700Z,5.32
2022-10-19T14:44:44.002Z,5.50
2022-10-19T14:48:48.649Z,6.80
2022-10-19T14:52:54.747Z,9.20
2022-10-19T14:57:02.024Z,11.68
2022-10-19T15:01:03.972Z,7.32
2022-10-19T15:05:15.720Z,6.10
2022-10-19T15:09:37.606Z,1.83
2022-10-19T15:13:51.856Z,1.60
2022-10-19T15:18:04.117Z,2.15
2022-10-19T15:22:06.459Z,1.90
2022-10-19T15:26:31.200Z,1999.90
2022-10-19T15:30:33.032Z,1999.90
2022-10-19T15:34:34.817Z,1999.90
2022-10-19T15:38:36.618Z,1999.90
2022-10-19T15:42:44.022Z,18.10
2022-10-19T15:46:48.750Z,6.80
2022-10-19T15:50:51.993Z,4.25
2022-10-19T15:54:55.845Z,2.67
2022-10-19T15:58:59.559Z,2.90
2022-10-19T16:03:01.216Z,2.90
2022-10-19T16:07:02.899Z,2.08
2022-10-19T16:11:06.248Z,2.00
2022-10-19T16:15:12.063Z,1.70
2022-10-19T16:19:13.720Z,1.90
2022-10-19T16:23:15.417Z,4.95
2022-10-19T16:27:17.171Z,4.00
2022-10-19T16:31:19.619Z,3.55
2022-10-19T16:35:21.272Z,2.28
2022-10-19T16:39:25.420Z,5.57
2022-10-19T16:43:27.287Z,2.65
2022-10-19T16:47:28.966Z,3.53
2022-10-19T16:51:36.966Z,2.67
2022-10-19T16:55:39.979Z,3.08
2022-10-19T16:59:41.756Z,3.40
2022-10-19T17:03:48.112Z,7.55
2022-10-19T17:07:50.100Z,14.37
2022-10-19T17:11:51.748Z,8.15
2022-10-19T17:15:53.409Z,5.20
2022-10-19T17:19:55.034Z,5.45
2022-10-19T17:23:59.403Z,5.65
2022-10-19T17:28:01.130Z,3.80
2022-10-19T17:32:02.871Z,4.50
2022-10-19T17:36:09.986Z,3.95
2022-10-19T17:44:13.536Z,2.90
2022-10-19T17:48:15.184Z,3.70
2022-10-19T17:52:16.832Z,3.10
2022-10-19T17:56:20.067Z,3.05
2022-10-19T18:00:21.788Z,5.85
2022-10-19T18:04:23.509Z,2.67
2022-10-19T18:08:25.451Z,2.40
2022-10-19T18:12:27.142Z,2.58
2022-10-19T18:16:31.734Z,2.88
2022-10-19T18:20:33.340Z,1.65
2022-10-19T18:24:35.019Z,2.35
2022-10-19T18:28:36.789Z,1.55
2022-10-19T18:32:38.476Z,2.75
2022-10-19T18:36:40.388Z,2.38
2022-10-19T18:40:42.077Z,2.38
2022-10-19T18:44:43.748Z,2.75
2022-10-19T18:48:46.189Z,2.33
2022-10-19T18:52:47.814Z,2.10
2022-10-19T18:56:49.497Z,3.85
2022-10-19T19:01:01.566Z,5.00
2022-10-19T19:05:03.370Z,2.88
2022-10-19T19:09:11.474Z,4.93
2022-10-19T19:13:13.139Z,6.82
2022-10-19T19:17:14.790Z,6.20
2022-10-19T19:21:19.042Z,4.30
2022-10-19T19:25:20.678Z,7.70
2022-10-19T19:29:22.773Z,5.72
2022-10-19T19:33:24.598Z,5.10
2022-10-19T19:37:26.290Z,4.43
2022-10-19T19:41:33.951Z,3.50
2022-10-19T19:45:36.508Z,3.80
2022-10-19T19:49:38.265Z,2.67
2022-10-19T19:53:40.505Z,3.58
2022-10-19T19:57:42.183Z,3.53
2022-10-19T20:01:44.120Z,5.40
2022-10-19T20:05:45.783Z,5.25
2022-10-19T20:09:47.436Z,3.33
2022-10-19T20:13:49.863Z,2.33
2022-10-19T20:17:51.498Z,3.67
2022-10-19T20:21:53.202Z,3.05
2022-10-19T20:25:56.345Z,3.58
2022-10-19T20:29:58.601Z,3.10
2022-10-19T20:34:00.298Z,6.93
2022-10-19T20:38:03.763Z,8.38
2022-10-19T20:42:05.462Z,8.60
2022-10-19T20:46:11.557Z,7.93
2022-10-19T20:50:13.227Z,6.43
2022-10-19T20:54:14.864Z,4.38
2022-10-19T20:58:16.508Z,8.80
2022-10-19T21:02:18.161Z,6.85
2022-10-19T21:06:20.691Z,3.88
2022-10-19T21:10:22.461Z,4.75
2022-10-19T21:14:28.553Z,4.15
2022-10-19T21:18:30.570Z,5.88
2022-10-19T21:22:38.626Z,5.82
2022-10-19T21:26:41.113Z,7.47
2022-10-19T21:30:42.770Z,5.45
2022-10-19T21:34:44.383Z,5.57
2022-10-19T21:38:46.147Z,5.72
2022-10-19T21:42:47.754Z,10.25
2022-10-19T21:46:50.133Z,8.45
2022-10-19T21:50:51.812Z,7.78
2022-10-19T21:54:53.549Z,7.85
2022-10-19T21:58:55.375Z,7.05
2022-10-19T22:02:56.999Z,7.10
2022-10-19T22:07:00.638Z,4.72
2022-10-19T22:11:10.763Z,5.72
2022-10-19T22:15:12.598Z,5.10
2022-10-19T22:19:14.589Z,3.90
2022-10-19T22:23:16.248Z,3.20
2022-10-19T22:27:17.907Z,2.40
2022-10-19T22:31:19.557Z,3.42
2022-10-19T22:35:22.300Z,12.00
2022-10-19T22:39:27.004Z,8.77
2022-10-19T22:43:29.726Z,6.40
2022-10-19T22:47:31.340Z,3.80
2022-10-19T22:51:33.042Z,3.13
2022-10-19T22:55:34.714Z,2.97
2022-10-19T22:59:36.345Z,5.35
2022-10-19T23:03:40.275Z,3.28
2022-10-19T23:07:41.970Z,4.30
2022-10-19T23:11:43.612Z,5.90
2022-10-19T23:15:45.376Z,4.63
2022-10-19T23:19:47.312Z,4.45
2022-10-19T23:23:49.127Z,3.67
2022-10-19T23:27:50.798Z,4.63
2022-10-19T23:31:52.465Z,3.70
2022-10-19T23:35:54.123Z,3.67
2022-10-19T23:39:55.786Z,3.85
2022-10-19T23:43:57.455Z,7.55
2022-10-19T23:47:59.147Z,6.97
2022-10-19T23:52:00.817Z,7.47
2022-10-19T23:56:06.073Z,6.30
